sensor_id;sensor_type;location;lat;lon;timestamp;P1;durP1;ratioP1;P2;durP2;ratioP2
46363;SDS011;32071;49.036;9.344;2023-11-21T00:02:04;3.10;;;1.90;;
46363;SDS011;32071;49.036;9.344;2023-11-21T00:04:29;2.50;;;1.80;;
46363;SDS011;32071;49.036;9.344;2023-11-21T00:06:55;1.67;;;1.57;;
46363;SDS011;32071;49.036;9.344;2023-11-21T00:09:21;4.30;;;2.57;;
46363;SDS011;32071;49.036;9.344;2023-11-21T00:11:46;2.00;;;1.80;;
46363;SDS011;32071;49.036;9.344;2023-11-21T00:14:12;8.23;;;1.97;;
46363;SDS011;32071;49.036;9.344;2023-11-21T00:16:40;4.33;;;1.87;;
46363;SDS011;32071;49.036;9.344;2023-11-21T00:19:06;2.87;;;1.70;;
46363;SDS011;32071;49.036;9.344;2023-11-21T00:21:31;4.10;;;2.63;;
46363;SDS011;32071;49.036;9.344;2023-11-21T00:23:57;2.27;;;2.07;;
46363;SDS011;32071;49.036;9.344;2023-11-21T00:26:22;5.93;;;3.87;;
46363;SDS011;32071;49.036;9.344;2023-11-21T00:28:49;8.80;;;2.77;;
46363;SDS011;32071;49.036;9.344;2023-11-21T00:31:15;7.80;;;1.80;;
46363;SDS011;32071;49.036;9.344;2023-11-21T00:33:41;3.13;;;1.70;;
46363;SDS011;32071;49.036;9.344;2023-11-21T00:36:07;4.03;;;1.33;;
46363;SDS011;32071;49.036;9.344;2023-11-21T00:38:34;2.90;;;1.80;;
46363;SDS011;32071;49.036;9.344;2023-11-21T00:41:01;2.10;;;1.90;;
46363;SDS011;32071;49.036;9.344;2023-11-21T00:43:27;3.00;;;1.70;;
46363;SDS011;32071;49.036;9.344;2023-11-21T00:45:53;3.80;;;1.93;;
46363;SDS011;32071;49.036;9.344;2023-11-21T00:48:19;3.73;;;1.73;;
46363;SDS011;32071;49.036;9.344;2023-11-21T00:50:44;2.70;;;1.50;;
46363;SDS011;32071;49.036;9.344;2023-11-21T00:53:10;5.80;;;1.60;;
46363;SDS011;32071;49.036;9.344;2023-11-21T00:55:36;2.00;;;1.60;;
46363;SDS011;32071;49.036;9.344;2023-11-21T00:58:02;4.40;;;2.00;;
46363;SDS011;32071;49.036;9.344;2023-11-21T01:00:29;10.17;;;3.10;;
46363;SDS011;32071;49.036;9.344;2023-11-21T01:02:55;5.23;;;1.70;;
46363;SDS011;32071;49.036;9.344;2023-11-21T01:05:21;3.07;;;1.43;;
46363;SDS011;32071;49.036;9.344;2023-11-21T01:07:46;4.87;;;1.80;;
46363;SDS011;32071;49.036;9.344;2023-11-21T01:10:12;4.00;;;1.77;;
46363;SDS011;32071;49.036;9.344;2023-11-21T01:12:38;2.17;;;1.60;;
46363;SDS011;32071;49.036;9.344;2023-11-21T01:15:06;6.83;;;2.20;;
46363;SDS011;32071;49.036;9.344;2023-11-21T01:17:32;4.70;;;2.23;;
46363;SDS011;32071;49.036;9.344;2023-11-21T01:19:59;4.27;;;2.13;;
46363;SDS011;32071;49.036;9.344;2023-11-21T01:22:25;2.20;;;2.00;;
46363;SDS011;32071;49.036;9.344;2023-11-21T01:24:52;3.57;;;2.23;;
46363;SDS011;32071;49.036;9.344;2023-11-21T01:27:18;5.03;;;2.00;;
46363;SDS011;32071;49.036;9.344;2023-11-21T01:29:44;4.57;;;1.50;;
46363;SDS011;32071;49.036;9.344;2023-11-21T01:32:09;3.30;;;1.80;;
46363;SDS011;32071;49.036;9.344;2023-11-21T01:34:35;3.37;;;2.10;;
46363;SDS011;32071;49.036;9.344;2023-11-21T01:37:01;4.73;;;2.20;;
46363;SDS011;32071;49.036;9.344;2023-11-21T01:39:29;4.97;;;2.07;;
46363;SDS011;32071;49.036;9.344;2023-11-21T01:41:55;2.97;;;1.80;;
46363;SDS011;32071;49.036;9.344;2023-11-21T01:44:23;7.60;;;2.40;;
46363;SDS011;32071;49.036;9.344;2023-11-21T01:46:49;6.03;;;2.10;;
46363;SDS011;32071;49.036;9.344;2023-11-21T01:49:15;2.77;;;2.23;;
46363;SDS011;32071;49.036;9.344;2023-11-21T01:51:43;7.23;;;2.20;;
46363;SDS011;32071;49.036;9.344;2023-11-21T01:54:11;4.50;;;2.10;;
46363;SDS011;32071;49.036;9.344;2023-11-21T01:56:37;2.97;;;2.03;;
46363;SDS011;32071;49.036;9.344;2023-11-21T01:59:04;3.60;;;1.83;;
46363;SDS011;32071;49.036;9.344;2023-11-21T02:01:30;4.87;;;2.10;;
46363;SDS011;32071;49.036;9.344;2023-11-21T02:03:55;2.17;;;1.70;;
46363;SDS011;32071;49.036;9.344;2023-11-21T02:06:21;5.03;;;2.23;;
46363;SDS011;32071;49.036;9.344;2023-11-21T02:08:47;4.03;;;2.20;;
46363;SDS011;32071;49.036;9.344;2023-11-21T02:11:14;7.17;;;2.73;;
46363;SDS011;32071;49.036;9.344;2023-11-21T02:13:39;9.20;;;2.27;;
46363;SDS011;32071;49.036;9.344;2023-11-21T02:16:09;3.40;;;2.20;;
46363;SDS011;32071;49.036;9.344;2023-11-21T02:18:37;7.53;;;2.67;;
46363;SDS011;32071;49.036;9.344;2023-11-21T02:21:04;4.30;;;2.50;;
46363;SDS011;32071;49.036;9.344;2023-11-21T02:23:30;5.40;;;2.73;;
46363;SDS011;32071;49.036;9.344;2023-11-21T02:25:55;3.00;;;2.30;;
46363;SDS011;32071;49.036;9.344;2023-11-21T02:28:21;2.90;;;2.20;;
46363;SDS011;32071;49.036;9.344;2023-11-21T02:30:51;4.67;;;2.30;;
46363;SDS011;32071;49.036;9.344;2023-11-21T02:33:21;3.43;;;2.50;;
46363;SDS011;32071;49.036;9.344;2023-11-21T02:35:46;3.00;;;2.00;;
46363;SDS011;32071;49.036;9.344;2023-11-21T02:38:12;3.57;;;2.40;;
46363;SDS011;32071;49.036;9.344;2023-11-21T02:40:38;3.33;;;2.13;;
46363;SDS011;32071;49.036;9.344;2023-11-21T02:43:04;4.20;;;1.90;;
46363;SDS011;32071;49.036;9.344;2023-11-21T02:45:31;3.53;;;2.00;;
46363;SDS011;32071;49.036;9.344;2023-11-21T02:47:57;5.20;;;2.23;;
46363;SDS011;32071;49.036;9.344;2023-11-21T02:50:23;4.13;;;3.13;;
46363;SDS011;32071;49.036;9.344;2023-11-21T02:52:49;6.20;;;2.83;;
46363;SDS011;32071;49.036;9.344;2023-11-21T02:55:14;3.90;;;2.30;;
46363;SDS011;32071;49.036;9.344;2023-11-21T02:57:40;4.40;;;2.53;;
46363;SDS011;32071;49.036;9.344;2023-11-21T03:00:06;10.00;;;2.70;;
46363;SDS011;32071;49.036;9.344;2023-11-21T03:02:32;3.43;;;2.47;;
46363;SDS011;32071;49.036;9.344;2023-11-21T03:05:01;4.47;;;2.80;;
46363;SDS011;32071;49.036;9.344;2023-11-21T03:07:27;4.13;;;2.40;;
46363;SDS011;32071;49.036;9.344;2023-11-21T03:09:53;2.80;;;2.20;;
46363;SDS011;32071;49.036;9.344;2023-11-21T03:12:18;3.70;;;2.20;;
46363;SDS011;32071;49.036;9.344;2023-11-21T03:14:44;6.03;;;1.73;;
46363;SDS011;32071;49.036;9.344;2023-11-21T03:17:10;2.60;;;1.70;;
46363;SDS011;32071;49.036;9.344;2023-11-21T03:19:36;2.80;;;2.13;;
46363;SDS011;32071;49.036;9.344;2023-11-21T03:22:02;5.70;;;2.10;;
46363;SDS011;32071;49.036;9.344;2023-11-21T03:24:29;3.63;;;1.80;;
46363;SDS011;32071;49.036;9.344;2023-11-21T03:26:54;1.70;;;1.57;;
46363;SDS011;32071;49.036;9.344;2023-11-21T03:29:21;5.07;;;1.70;;
46363;SDS011;32071;49.036;9.344;2023-11-21T03:31:46;4.00;;;1.80;;
46363;SDS011;32071;49.036;9.344;2023-11-21T03:34:16;3.93;;;1.57;;
46363;SDS011;32071;49.036;9.344;2023-11-21T03:36:47;2.80;;;1.37;;
46363;SDS011;32071;49.036;9.344;2023-11-21T03:39:13;3.80;;;2.07;;
46363;SDS011;32071;49.036;9.344;2023-11-21T03:41:38;2.87;;;1.90;;
46363;SDS011;32071;49.036;9.344;2023-11-21T03:44:04;4.23;;;2.30;;
46363;SDS011;32071;49.036;9.344;2023-11-21T03:46:30;3.50;;;1.80;;
46363;SDS011;32071;49.036;9.344;2023-11-21T03:48:55;3.83;;;2.10;;
46363;SDS011;32071;49.036;9.344;2023-11-21T03:51:21;3.60;;;2.13;;
46363;SDS011;32071;49.036;9.344;2023-11-21T03:53:46;2.07;;;1.77;;
46363;SDS011;32071;49.036;9.344;2023-11-21T03:56:13;2.47;;;2.07;;
46363;SDS011;32071;49.036;9.344;2023-11-21T03:58:39;5.30;;;2.73;;
46363;SDS011;32071;49.036;9.344;2023-11-21T04:01:04;2.40;;;2.10;;
46363;SDS011;32071;49.036;9.344;2023-11-21T04:03:30;2.43;;;2.07;;
46363;SDS011;32071;49.036;9.344;2023-11-21T04:05:56;4.23;;;2.00;;
46363;SDS011;32071;49.036;9.344;2023-11-21T04:08:22;3.90;;;2.00;;
46363;SDS011;32071;49.036;9.344;2023-11-21T04:10:47;2.80;;;2.10;;
46363;SDS011;32071;49.036;9.344;2023-11-21T04:13:13;4.20;;;2.37;;
46363;SDS011;32071;49.036;9.344;2023-11-21T04:15:39;3.30;;;2.40;;
46363;SDS011;32071;49.036;9.344;2023-11-21T04:18:05;4.07;;;2.60;;
46363;SDS011;32071;49.036;9.344;2023-11-21T04:20:30;7.07;;;2.00;;
46363;SDS011;32071;49.036;9.344;2023-11-21T04:22:56;3.33;;;2.20;;
46363;SDS011;32071;49.036;9.344;2023-11-21T04:25:21;4.77;;;2.37;;
46363;SDS011;32071;49.036;9.344;2023-11-21T04:27:48;3.10;;;2.00;;
46363;SDS011;32071;49.036;9.344;2023-11-21T04:30:14;3.20;;;2.10;;
46363;SDS011;32071;49.036;9.344;2023-11-21T04:32:40;4.63;;;2.57;;
46363;SDS011;32071;49.036;9.344;2023-11-21T04:35:06;3.97;;;2.27;;
46363;SDS011;32071;49.036;9.344;2023-11-21T04:37:36;5.83;;;2.50;;
46363;SDS011;32071;49.036;9.344;2023-11-21T04:40:01;4.73;;;2.50;;
46363;SDS011;32071;49.036;9.344;2023-11-21T04:42:31;9.07;;;4.40;;
46363;SDS011;32071;49.036;9.344;2023-11-21T04:44:58;4.30;;;2.50;;
46363;SDS011;32071;49.036;9.344;2023-11-21T04:47:23;6.97;;;4.10;;
46363;SDS011;32071;49.036;9.344;2023-11-21T04:49:49;7.30;;;3.80;;
46363;SDS011;32071;49.036;9.344;2023-11-21T04:52:15;3.60;;;2.83;;
46363;SDS011;32071;49.036;9.344;2023-11-21T04:54:40;4.00;;;2.07;;
46363;SDS011;32071;49.036;9.344;2023-11-21T04:57:06;6.53;;;2.10;;
46363;SDS011;32071;49.036;9.344;2023-11-21T04:59:34;3.97;;;1.90;;
46363;SDS011;32071;49.036;9.344;2023-11-21T05:02:00;6.03;;;3.37;;
46363;SDS011;32071;49.036;9.344;2023-11-21T05:04:26;2.20;;;2.03;;
46363;SDS011;32071;49.036;9.344;2023-11-21T05:06:52;5.50;;;2.10;;
46363;SDS011;32071;49.036;9.344;2023-11-21T05:09:17;2.37;;;2.00;;
46363;SDS011;32071;49.036;9.344;2023-11-21T05:11:43;3.63;;;2.23;;
46363;SDS011;32071;49.036;9.344;2023-11-21T05:14:08;4.93;;;2.23;;
46363;SDS011;32071;49.036;9.344;2023-11-21T05:16:34;5.00;;;2.33;;
46363;SDS011;32071;49.036;9.344;2023-11-21T05:19:00;5.20;;;2.60;;
46363;SDS011;32071;49.036;9.344;2023-11-21T05:21:26;8.83;;;3.30;;
46363;SDS011;32071;49.036;9.344;2023-11-21T05:23:52;17.97;;;12.63;;
46363;SDS011;32071;49.036;9.344;2023-11-21T05:26:18;19.67;;;12.50;;
46363;SDS011;32071;49.036;9.344;2023-11-21T05:28:43;9.30;;;7.33;;
46363;SDS011;32071;49.036;9.344;2023-11-21T05:31:09;9.07;;;3.37;;
46363;SDS011;32071;49.036;9.344;2023-11-21T05:33:35;3.60;;;2.40;;
46363;SDS011;32071;49.036;9.344;2023-11-21T05:36:01;3.30;;;2.30;;
46363;SDS011;32071;49.036;9.344;2023-11-21T05:38:27;3.60;;;2.00;;
46363;SDS011;32071;49.036;9.344;2023-11-21T05:40:53;2.50;;;2.30;;
46363;SDS011;32071;49.036;9.344;2023-11-21T05:43:19;3.70;;;3.33;;
46363;SDS011;32071;49.036;9.344;2023-11-21T05:45:44;6.37;;;3.73;;
46363;SDS011;32071;49.036;9.344;2023-11-21T05:48:10;6.33;;;4.00;;
46363;SDS011;32071;49.036;9.344;2023-11-21T05:50:36;3.80;;;2.90;;
46363;SDS011;32071;49.036;9.344;2023-11-21T05:53:03;6.00;;;4.80;;
46363;SDS011;32071;49.036;9.344;2023-11-21T05:55:28;6.17;;;5.03;;
46363;SDS011;32071;49.036;9.344;2023-11-21T05:57:54;4.30;;;2.93;;
46363;SDS011;32071;49.036;9.344;2023-11-21T06:00:20;10.60;;;9.70;;
46363;SDS011;32071;49.036;9.344;2023-11-21T06:02:47;7.80;;;7.00;;
46363;SDS011;32071;49.036;9.344;2023-11-21T06:05:18;2.97;;;2.77;;
46363;SDS011;32071;49.036;9.344;2023-11-21T06:07:44;3.43;;;2.47;;
46363;SDS011;32071;49.036;9.344;2023-11-21T06:10:11;4.13;;;2.20;;
46363;SDS011;32071;49.036;9.344;2023-11-21T06:12:40;2.60;;;2.10;;
46363;SDS011;32071;49.036;9.344;2023-11-21T06:15:07;2.80;;;1.90;;
46363;SDS011;32071;49.036;9.344;2023-11-21T06:17:38;3.50;;;2.10;;
46363;SDS011;32071;49.036;9.344;2023-11-21T06:20:06;2.73;;;2.27;;
46363;SDS011;32071;49.036;9.344;2023-11-21T06:22:39;3.10;;;2.30;;
46363;SDS011;32071;49.036;9.344;2023-11-21T06:25:06;3.07;;;2.27;;
46363;SDS011;32071;49.036;9.344;2023-11-21T06:27:33;6.33;;;4.13;;
46363;SDS011;32071;49.036;9.344;2023-11-21T06:30:01;8.73;;;3.80;;
46363;SDS011;32071;49.036;9.344;2023-11-21T06:32:27;6.30;;;3.00;;
46363;SDS011;32071;49.036;9.344;2023-11-21T06:34:54;5.10;;;3.77;;
46363;SDS011;32071;49.036;9.344;2023-11-21T06:37:20;4.20;;;3.53;;
46363;SDS011;32071;49.036;9.344;2023-11-21T06:39:48;6.70;;;4.20;;
46363;SDS011;32071;49.036;9.344;2023-11-21T06:42:14;5.00;;;4.13;;
46363;SDS011;32071;49.036;9.344;2023-11-21T06:44:40;5.63;;;4.33;;
46363;SDS011;32071;49.036;9.344;2023-11-21T06:47:06;6.40;;;4.60;;
46363;SDS011;32071;49.036;9.344;2023-11-21T06:49:32;8.20;;;5.00;;
46363;SDS011;32071;49.036;9.344;2023-11-21T06:51:58;11.00;;;6.23;;
46363;SDS011;32071;49.036;9.344;2023-11-21T06:54:23;6.83;;;4.83;;
46363;SDS011;32071;49.036;9.344;2023-11-21T06:56:49;7.90;;;5.83;;
46363;SDS011;32071;49.036;9.344;2023-11-21T06:59:15;4.63;;;4.00;;
46363;SDS011;32071;49.036;9.344;2023-11-21T07:01:41;5.57;;;4.50;;
46363;SDS011;32071;49.036;9.344;2023-11-21T07:04:06;5.60;;;3.70;;
46363;SDS011;32071;49.036;9.344;2023-11-21T07:06:33;4.23;;;3.27;;
46363;SDS011;32071;49.036;9.344;2023-11-21T07:08:59;3.63;;;2.87;;
46363;SDS011;32071;49.036;9.344;2023-11-21T07:11:26;2.77;;;2.53;;
46363;SDS011;32071;49.036;9.344;2023-11-21T07:13:52;3.20;;;2.90;;
46363;SDS011;32071;49.036;9.344;2023-11-21T07:16:18;3.30;;;2.67;;
46363;SDS011;32071;49.036;9.344;2023-11-21T07:18:44;3.00;;;1.93;;
46363;SDS011;32071;49.036;9.344;2023-11-21T07:21:10;2.90;;;2.70;;
46363;SDS011;32071;49.036;9.344;2023-11-21T07:23:37;6.07;;;3.47;;
46363;SDS011;32071;49.036;9.344;2023-11-21T07:26:03;5.27;;;3.33;;
46363;SDS011;32071;49.036;9.344;2023-11-21T07:28:33;17.03;;;11.30;;
46363;SDS011;32071;49.036;9.344;2023-11-21T07:30:59;17.53;;;7.40;;
46363;SDS011;32071;49.036;9.344;2023-11-21T07:33:25;9.50;;;6.00;;
46363;SDS011;32071;49.036;9.344;2023-11-21T07:35:50;8.50;;;6.10;;
46363;SDS011;32071;49.036;9.344;2023-11-21T07:38:16;6.37;;;4.60;;
46363;SDS011;32071;49.036;9.344;2023-11-21T07:40:42;4.87;;;4.30;;
46363;SDS011;32071;49.036;9.344;2023-11-21T07:43:08;4.03;;;3.53;;
46363;SDS011;32071;49.036;9.344;2023-11-21T07:45:35;5.50;;;3.57;;
46363;SDS011;32071;49.036;9.344;2023-11-21T07:48:01;4.57;;;3.70;;
46363;SDS011;32071;49.036;9.344;2023-11-21T07:50:28;6.90;;;4.27;;
46363;SDS011;32071;49.036;9.344;2023-11-21T07:52:54;4.10;;;3.47;;
46363;SDS011;32071;49.036;9.344;2023-11-21T07:55:20;5.13;;;4.07;;
46363;SDS011;32071;49.036;9.344;2023-11-21T07:57:45;5.57;;;3.73;;
46363;SDS011;32071;49.036;9.344;2023-11-21T08:00:11;4.20;;;3.70;;
46363;SDS011;32071;49.036;9.344;2023-11-21T08:02:38;4.30;;;3.50;;
46363;SDS011;32071;49.036;9.344;2023-11-21T08:05:07;6.30;;;3.40;;
46363;SDS011;32071;49.036;9.344;2023-11-21T08:07:33;6.00;;;3.90;;
46363;SDS011;32071;49.036;9.344;2023-11-21T08:09:58;4.40;;;3.40;;
46363;SDS011;32071;49.036;9.344;2023-11-21T08:12:24;6.37;;;3.77;;
46363;SDS011;32071;49.036;9.344;2023-11-21T08:14:52;5.37;;;3.97;;
46363;SDS011;32071;49.036;9.344;2023-11-21T08:17:18;5.80;;;4.30;;
46363;SDS011;32071;49.036;9.344;2023-11-21T08:19:45;5.97;;;4.33;;
46363;SDS011;32071;49.036;9.344;2023-11-21T08:22:14;5.43;;;4.93;;
46363;SDS011;32071;49.036;9.344;2023-11-21T08:24:43;6.17;;;5.17;;
46363;SDS011;32071;49.036;9.344;2023-11-21T08:27:09;5.43;;;4.93;;
46363;SDS011;32071;49.036;9.344;2023-11-21T08:29:34;10.33;;;6.70;;
46363;SDS011;32071;49.036;9.344;2023-11-21T08:32:01;11.10;;;6.60;;
46363;SDS011;32071;49.036;9.344;2023-11-21T08:34:27;8.53;;;6.03;;
46363;SDS011;32071;49.036;9.344;2023-11-21T08:36:53;9.70;;;6.10;;
46363;SDS011;32071;49.036;9.344;2023-11-21T08:39:20;7.83;;;5.77;;
46363;SDS011;32071;49.036;9.344;2023-11-21T08:41:49;8.03;;;5.30;;
46363;SDS011;32071;49.036;9.344;2023-11-21T08:44:15;8.90;;;5.57;;
46363;SDS011;32071;49.036;9.344;2023-11-21T08:46:44;9.07;;;5.20;;
46363;SDS011;32071;49.036;9.344;2023-11-21T08:49:13;7.90;;;5.83;;
46363;SDS011;32071;49.036;9.344;2023-11-21T08:51:40;5.10;;;4.60;;
46363;SDS011;32071;49.036;9.344;2023-11-21T08:54:06;5.90;;;4.10;;
46363;SDS011;32071;49.036;9.344;2023-11-21T08:56:36;5.00;;;4.10;;
46363;SDS011;32071;49.036;9.344;2023-11-21T08:59:01;4.30;;;3.90;;
46363;SDS011;32071;49.036;9.344;2023-11-21T09:01:30;7.83;;;4.20;;
46363;SDS011;32071;49.036;9.344;2023-11-21T09:03:57;3.80;;;3.43;;
46363;SDS011;32071;49.036;9.344;2023-11-21T09:06:23;4.53;;;4.00;;
46363;SDS011;32071;49.036;9.344;2023-11-21T09:08:49;4.87;;;3.47;;
46363;SDS011;32071;49.036;9.344;2023-11-21T09:11:15;4.60;;;4.10;;
46363;SDS011;32071;49.036;9.344;2023-11-21T09:13:40;6.33;;;4.30;;
46363;SDS011;32071;49.036;9.344;2023-11-21T09:16:06;6.30;;;3.80;;
46363;SDS011;32071;49.036;9.344;2023-11-21T09:18:32;7.53;;;5.10;;
46363;SDS011;32071;49.036;9.344;2023-11-21T09:20:57;7.50;;;6.70;;
46363;SDS011;32071;49.036;9.344;2023-11-21T09:23:23;14.90;;;8.93;;
46363;SDS011;32071;49.036;9.344;2023-11-21T09:25:49;8.20;;;6.87;;
46363;SDS011;32071;49.036;9.344;2023-11-21T09:28:16;15.23;;;7.70;;
46363;SDS011;32071;49.036;9.344;2023-11-21T09:30:43;8.30;;;5.80;;
46363;SDS011;32071;49.036;9.344;2023-11-21T09:33:09;13.50;;;9.57;;
46363;SDS011;32071;49.036;9.344;2023-11-21T09:35:37;10.40;;;7.33;;
46363;SDS011;32071;49.036;9.344;2023-11-21T09:38:03;12.33;;;8.57;;
46363;SDS011;32071;49.036;9.344;2023-11-21T09:40:34;8.53;;;6.77;;
46363;SDS011;32071;49.036;9.344;2023-11-21T09:43:00;8.33;;;6.70;;
46363;SDS011;32071;49.036;9.344;2023-11-21T09:45:40;10.07;;;6.00;;
46363;SDS011;32071;49.036;9.344;2023-11-21T09:48:11;6.03;;;5.30;;
46363;SDS011;32071;49.036;9.344;2023-11-21T09:50:40;7.23;;;5.03;;
46363;SDS011;32071;49.036;9.344;2023-11-21T09:53:17;6.67;;;4.60;;
46363;SDS011;32071;49.036;9.344;2023-11-21T09:55:46;6.93;;;4.90;;
46363;SDS011;32071;49.036;9.344;2023-11-21T09:58:13;9.20;;;6.97;;
46363;SDS011;32071;49.036;9.344;2023-11-21T10:00:43;11.30;;;7.67;;
46363;SDS011;32071;49.036;9.344;2023-11-21T10:03:10;6.87;;;5.63;;
46363;SDS011;32071;49.036;9.344;2023-11-21T10:05:36;8.10;;;7.20;;
46363;SDS011;32071;49.036;9.344;2023-11-21T10:08:09;7.50;;;5.97;;
46363;SDS011;32071;49.036;9.344;2023-11-21T10:10:35;7.00;;;5.30;;
46363;SDS011;32071;49.036;9.344;2023-11-21T10:13:05;8.80;;;5.67;;
46363;SDS011;32071;49.036;9.344;2023-11-21T10:15:35;8.50;;;6.10;;
46363;SDS011;32071;49.036;9.344;2023-11-21T10:18:04;5.67;;;4.63;;
46363;SDS011;32071;49.036;9.344;2023-11-21T10:20:32;4.40;;;4.00;;
46363;SDS011;32071;49.036;9.344;2023-11-21T10:22:59;6.80;;;4.00;;
46363;SDS011;32071;49.036;9.344;2023-11-21T10:25:28;10.63;;;4.10;;
46363;SDS011;32071;49.036;9.344;2023-11-21T10:27:57;4.00;;;3.60;;
46363;SDS011;32071;49.036;9.344;2023-11-21T10:30:35;6.37;;;4.80;;
46363;SDS011;32071;49.036;9.344;2023-11-21T10:33:05;7.33;;;4.40;;
46363;SDS011;32071;49.036;9.344;2023-11-21T10:35:47;5.20;;;4.17;;
46363;SDS011;32071;49.036;9.344;2023-11-21T10:38:19;7.17;;;3.30;;
46363;SDS011;32071;49.036;9.344;2023-11-21T10:40:50;5.77;;;4.30;;
46363;SDS011;32071;49.036;9.344;2023-11-21T10:43:17;6.50;;;4.10;;
46363;SDS011;32071;49.036;9.344;2023-11-21T10:45:43;5.30;;;4.50;;
46363;SDS011;32071;49.036;9.344;2023-11-21T10:48:10;6.13;;;4.33;;
46363;SDS011;32071;49.036;9.344;2023-11-21T10:50:40;4.87;;;3.60;;
46363;SDS011;32071;49.036;9.344;2023-11-21T10:53:06;6.10;;;5.20;;
46363;SDS011;32071;49.036;9.344;2023-11-21T10:55:33;16.57;;;10.57;;
46363;SDS011;32071;49.036;9.344;2023-11-21T10:58:00;14.80;;;8.10;;
46363;SDS011;32071;49.036;9.344;2023-11-21T11:00:27;6.87;;;4.70;;
46363;SDS011;32071;49.036;9.344;2023-11-21T11:02:54;4.00;;;3.43;;
46363;SDS011;32071;49.036;9.344;2023-11-21T11:05:21;5.63;;;2.67;;
46363;SDS011;32071;49.036;9.344;2023-11-21T11:07:50;6.77;;;3.73;;
46363;SDS011;32071;49.036;9.344;2023-11-21T11:10:24;8.77;;;3.30;;
46363;SDS011;32071;49.036;9.344;2023-11-21T11:12:52;3.67;;;3.37;;
46363;SDS011;32071;49.036;9.344;2023-11-21T11:15:22;6.00;;;4.13;;
46363;SDS011;32071;49.036;9.344;2023-11-21T11:17:48;6.90;;;4.20;;
46363;SDS011;32071;49.036;9.344;2023-11-21T11:20:15;4.37;;;3.90;;
46363;SDS011;32071;49.036;9.344;2023-11-21T11:22:43;4.07;;;3.50;;
46363;SDS011;32071;49.036;9.344;2023-11-21T11:25:46;6.77;;;5.40;;
46363;SDS011;32071;49.036;9.344;2023-11-21T11:28:56;5.43;;;4.10;;
46363;SDS011;32071;49.036;9.344;2023-11-21T11:34:18;4.60;;;3.50;;
46363;SDS011;32071;49.036;9.344;2023-11-21T11:37:00;3.60;;;3.30;;
46363;SDS011;32071;49.036;9.344;2023-11-21T11:39:33;4.13;;;3.73;;
46363;SDS011;32071;49.036;9.344;2023-11-21T11:42:07;4.20;;;3.80;;
46363;SDS011;32071;49.036;9.344;2023-11-21T11:47:14;6.50;;;3.57;;
46363;SDS011;32071;49.036;9.344;2023-11-21T11:55:03;3.73;;;2.60;;
46363;SDS011;32071;49.036;9.344;2023-11-21T11:57:33;3.60;;;3.30;;
46363;SDS011;32071;49.036;9.344;2023-11-21T12:00:16;4.50;;;3.90;;
46363;SDS011;32071;49.036;9.344;2023-11-21T12:02:48;4.07;;;3.67;;
46363;SDS011;32071;49.036;9.344;2023-11-21T12:05:15;3.73;;;3.33;;
46363;SDS011;32071;49.036;9.344;2023-11-21T12:07:43;4.13;;;3.73;;
46363;SDS011;32071;49.036;9.344;2023-11-21T12:10:23;4.30;;;2.70;;
46363;SDS011;32071;49.036;9.344;2023-11-21T12:12:50;5.40;;;2.90;;
46363;SDS011;32071;49.036;9.344;2023-11-21T12:15:18;3.40;;;3.10;;
46363;SDS011;32071;49.036;9.344;2023-11-21T12:17:44;5.30;;;2.90;;
46363;SDS011;32071;49.036;9.344;2023-11-21T12:20:11;4.50;;;3.77;;
46363;SDS011;32071;49.036;9.344;2023-11-21T12:25:18;4.20;;;3.53;;
46363;SDS011;32071;49.036;9.344;2023-11-21T12:27:48;3.67;;;3.17;;
46363;SDS011;32071;49.036;9.344;2023-11-21T12:30:17;3.53;;;3.23;;
46363;SDS011;32071;49.036;9.344;2023-11-21T12:32:54;3.93;;;3.53;;
46363;SDS011;32071;49.036;9.344;2023-11-21T12:35:30;3.40;;;3.10;;
46363;SDS011;32071;49.036;9.344;2023-11-21T12:38:00;2.67;;;2.47;;
46363;SDS011;32071;49.036;9.344;2023-11-21T12:40:34;2.37;;;2.17;;
46363;SDS011;32071;49.036;9.344;2023-11-21T12:43:00;1.90;;;1.60;;
46363;SDS011;32071;49.036;9.344;2023-11-21T12:45:32;1.70;;;1.33;;
46363;SDS011;32071;49.036;9.344;2023-11-21T12:47:59;1.90;;;1.70;;
46363;SDS011;32071;49.036;9.344;2023-11-21T12:50:29;1.50;;;1.40;;
46363;SDS011;32071;49.036;9.344;2023-11-21T12:52:59;1.40;;;1.30;;
46363;SDS011;32071;49.036;9.344;2023-11-21T12:55:30;1.10;;;0.90;;
46363;SDS011;32071;49.036;9.344;2023-11-21T12:57:57;0.90;;;0.80;;
46363;SDS011;32071;49.036;9.344;2023-11-21T13:00:37;1.07;;;1.00;;
46363;SDS011;32071;49.036;9.344;2023-11-21T13:03:08;1.00;;;1.00;;
46363;SDS011;32071;49.036;9.344;2023-11-21T13:05:37;0.90;;;0.90;;
46363;SDS011;32071;49.036;9.344;2023-11-21T13:08:05;0.80;;;0.70;;
46363;SDS011;32071;49.036;9.344;2023-11-21T13:10:38;0.80;;;0.80;;
46363;SDS011;32071;49.036;9.344;2023-11-21T13:13:05;0.80;;;0.80;;
46363;SDS011;32071;49.036;9.344;2023-11-21T13:15:34;1.10;;;1.00;;
46363;SDS011;32071;49.036;9.344;2023-11-21T13:18:03;0.70;;;0.70;;
46363;SDS011;32071;49.036;9.344;2023-11-21T13:20:29;1.03;;;0.93;;
46363;SDS011;32071;49.036;9.344;2023-11-21T13:22:57;0.93;;;0.73;;
46363;SDS011;32071;49.036;9.344;2023-11-21T13:25:27;1.23;;;1.03;;
46363;SDS011;32071;49.036;9.344;2023-11-21T13:27:54;1.00;;;1.00;;
46363;SDS011;32071;49.036;9.344;2023-11-21T13:30:26;1.00;;;1.00;;
46363;SDS011;32071;49.036;9.344;2023-11-21T13:32:59;3.03;;;1.60;;
46363;SDS011;32071;49.036;9.344;2023-11-21T13:35:31;1.30;;;1.20;;
46363;SDS011;32071;49.036;9.344;2023-11-21T13:38:10;1.50;;;1.40;;
46363;SDS011;32071;49.036;9.344;2023-11-21T13:40:37;21.33;;;2.30;;
46363;SDS011;32071;49.036;9.344;2023-11-21T13:43:15;1.20;;;1.10;;
46363;SDS011;32071;49.036;9.344;2023-11-21T13:45:43;0.90;;;0.90;;
46363;SDS011;32071;49.036;9.344;2023-11-21T13:48:10;1.20;;;1.10;;
46363;SDS011;32071;49.036;9.344;2023-11-21T13:50:42;1.20;;;1.10;;
46363;SDS011;32071;49.036;9.344;2023-11-21T13:53:13;1.30;;;1.20;;
46363;SDS011;32071;49.036;9.344;2023-11-21T13:55:51;2.90;;;1.40;;
46363;SDS011;32071;49.036;9.344;2023-11-21T13:58:22;1.87;;;1.20;;
46363;SDS011;32071;49.036;9.344;2023-11-21T14:00:59;2.20;;;1.40;;
46363;SDS011;32071;49.036;9.344;2023-11-21T14:03:26;1.23;;;1.13;;
46363;SDS011;32071;49.036;9.344;2023-11-21T14:06:04;2.20;;;1.40;;
46363;SDS011;32071;49.036;9.344;2023-11-21T14:08:39;1.97;;;1.77;;
46363;SDS011;32071;49.036;9.344;2023-11-21T14:11:05;1.87;;;1.40;;
46363;SDS011;32071;49.036;9.344;2023-11-21T14:13:31;1.50;;;1.40;;
46363;SDS011;32071;49.036;9.344;2023-11-21T14:15:58;2.10;;;1.83;;
46363;SDS011;32071;49.036;9.344;2023-11-21T14:18:25;2.20;;;2.00;;
46363;SDS011;32071;49.036;9.344;2023-11-21T14:21:03;4.97;;;2.20;;
46363;SDS011;32071;49.036;9.344;2023-11-21T14:23:30;2.40;;;2.20;;
46363;SDS011;32071;49.036;9.344;2023-11-21T14:25:58;1.70;;;1.60;;
46363;SDS011;32071;49.036;9.344;2023-11-21T14:28:26;3.80;;;2.37;;
46363;SDS011;32071;49.036;9.344;2023-11-21T14:30:51;2.47;;;1.67;;
46363;SDS011;32071;49.036;9.344;2023-11-21T14:33:17;2.30;;;2.10;;
46363;SDS011;32071;49.036;9.344;2023-11-21T14:35:43;2.33;;;2.13;;
46363;SDS011;32071;49.036;9.344;2023-11-21T14:38:09;3.50;;;2.50;;
46363;SDS011;32071;49.036;9.344;2023-11-21T14:40:35;2.60;;;2.00;;
46363;SDS011;32071;49.036;9.344;2023-11-21T14:43:01;2.30;;;2.10;;
46363;SDS011;32071;49.036;9.344;2023-11-21T14:45:30;2.67;;;2.07;;
46363;SDS011;32071;49.036;9.344;2023-11-21T14:47:56;4.10;;;2.60;;
46363;SDS011;32071;49.036;9.344;2023-11-21T14:50:28;2.23;;;2.03;;
46363;SDS011;32071;49.036;9.344;2023-11-21T14:53:16;3.90;;;2.67;;
46363;SDS011;32071;49.036;9.344;2023-11-21T14:56:00;6.60;;;3.30;;
46363;SDS011;32071;49.036;9.344;2023-11-21T14:58:28;3.47;;;2.50;;
46363;SDS011;32071;49.036;9.344;2023-11-21T15:00:58;3.10;;;2.57;;
46363;SDS011;32071;49.036;9.344;2023-11-21T15:03:25;2.27;;;2.03;;
46363;SDS011;32071;49.036;9.344;2023-11-21T15:05:57;2.90;;;2.53;;